createdAt,value
2019-05-17T00:00:51.007Z,9.80
2019-05-17T00:03:23.636Z,10.73
2019-05-17T00:05:54.128Z,10.73
2019-05-17T00:08:34.380Z,9.93
2019-05-17T00:10:57.098Z,9.70
2019-05-17T00:13:28.204Z,9.80
2019-05-17T00:15:58.742Z,10.30
2019-05-17T00:18:29.378Z,10.43
2019-05-17T00:21:00.002Z,10.30
2019-05-17T00:23:30.830Z,10.30
2019-05-17T00:26:01.378Z,10.20
2019-05-17T00:28:32.212Z,9.60
2019-05-17T00:31:02.795Z,9.27
2019-05-17T00:33:33.484Z,9.10
2019-05-17T00:36:04.018Z,9.17
2019-05-17T00:38:47.915Z,9.03
2019-05-17T00:41:07.242Z,8.47
2019-05-17T00:43:38.113Z,9.00
2019-05-17T00:46:08.547Z,9.13
2019-05-17T00:48:39.019Z,8.70
2019-05-17T00:51:10.734Z,9.23
2019-05-17T00:53:41.495Z,9.00
2019-05-17T00:56:12.082Z,9.70
2019-05-17T00:58:42.583Z,9.20
2019-05-17T01:01:13.217Z,8.90
2019-05-17T01:03:43.673Z,9.40
2019-05-17T01:06:14.197Z,9.60
2019-05-17T01:08:47.510Z,9.47
2019-05-17T01:11:17.139Z,8.97
2019-05-17T01:13:47.775Z,9.10
2019-05-17T01:16:19.605Z,9.40
2019-05-17T01:18:50.231Z,8.77
2019-05-17T01:21:20.939Z,9.10
2019-05-17T01:23:51.395Z,9.27
2019-05-17T01:26:21.916Z,9.40
2019-05-17T01:28:52.483Z,9.17
2019-05-17T01:31:22.969Z,9.50
2019-05-17T01:33:53.602Z,9.83
2019-05-17T01:36:26.227Z,9.77
2019-05-17T01:38:57.656Z,9.70
2019-05-17T01:41:29.444Z,10.73
2019-05-17T01:44:00.293Z,9.60
2019-05-17T01:46:30.750Z,9.70
2019-05-17T01:49:01.313Z,10.87
2019-05-17T01:51:32.004Z,10.63
2019-05-17T01:54:02.609Z,10.50
2019-05-17T01:56:33.341Z,11.20
2019-05-17T01:59:06.611Z,12.97
2019-05-17T02:01:37.073Z,13.83
2019-05-17T02:04:09.057Z,19.03
2019-05-17T02:06:39.492Z,27.07
2019-05-17T02:09:10.241Z,39.60
2019-05-17T02:11:40.921Z,35.73
2019-05-17T02:14:11.592Z,38.67
2019-05-17T02:16:43.114Z,45.83
2019-05-17T02:19:13.903Z,46.93
2019-05-17T02:21:44.362Z,48.47
2019-05-17T02:24:16.943Z,39.27
2019-05-17T02:26:47.399Z,36.03
2019-05-17T02:29:17.871Z,34.97
2019-05-17T02:31:48.686Z,41.00
2019-05-17T02:34:19.278Z,46.80
2019-05-17T02:36:49.683Z,47.83
2019-05-17T02:39:23.310Z,51.77
2019-05-17T02:41:53.255Z,49.93
2019-05-17T02:44:24.014Z,47.17
2019-05-17T02:46:54.960Z,46.97
2019-05-17T02:49:25.420Z,44.20
2019-05-17T02:51:56.153Z,41.53
2019-05-17T02:54:26.802Z,40.03
2019-05-17T02:56:57.612Z,41.00
2019-05-17T02:59:28.202Z,40.30
2019-05-17T03:01:59.227Z,36.80
2019-05-17T03:04:32.679Z,30.33
2019-05-17T03:07:03.775Z,31.17
2019-05-17T03:09:34.739Z,30.37
2019-05-17T03:12:05.840Z,25.40
2019-05-17T03:14:36.641Z,21.87
2019-05-17T03:17:07.141Z,18.80
2019-05-17T03:19:37.822Z,19.43
2019-05-17T03:22:12.897Z,19.67
2019-05-17T03:24:43.945Z,15.93
2019-05-17T03:27:16.491Z,18.50
2019-05-17T03:29:47.043Z,17.67
2019-05-17T03:32:18.155Z,15.47
2019-05-17T03:34:55.282Z,14.67
2019-05-17T03:37:30.269Z,14.07
2019-05-17T03:39:53.772Z,13.73
2019-05-17T03:42:24.601Z,14.23
2019-05-17T03:44:55.114Z,14.10
2019-05-17T03:47:25.910Z,13.73
2019-05-17T03:49:56.383Z,14.17
2019-05-17T03:52:26.889Z,14.30
2019-05-17T03:54:58.355Z,14.63
2019-05-17T03:57:29.045Z,14.63
2019-05-17T04:00:03.526Z,13.60
2019-05-17T04:02:32.704Z,12.63
2019-05-17T04:05:04.386Z,12.47
2019-05-17T04:07:35.245Z,11.90
2019-05-17T04:10:09.605Z,11.33
2019-05-17T04:12:43.626Z,12.00
2019-05-17T04:15:13.483Z,11.43
2019-05-17T04:17:44.607Z,11.13
2019-05-17T04:20:15.404Z,11.87
2019-05-17T04:22:46.078Z,11.23
2019-05-17T04:25:16.643Z,11.07
2019-05-17T04:27:47.652Z,10.90
2019-05-17T04:30:18.383Z,10.87
2019-05-17T04:32:48.872Z,11.73
2019-05-17T04:35:19.433Z,10.97
2019-05-17T04:37:53.088Z,11.33
2019-05-17T04:40:23.282Z,11.03
2019-05-17T04:42:54.040Z,10.33
2019-05-17T04:45:24.861Z,10.57
2019-05-17T04:47:55.302Z,10.33
2019-05-17T04:50:26.976Z,11.07
2019-05-17T04:52:57.398Z,10.70
2019-05-17T04:55:29.464Z,10.20
2019-05-17T04:58:03.493Z,9.57
2019-05-17T05:00:34.137Z,9.87
2019-05-17T05:03:04.641Z,9.70
2019-05-17T05:05:35.145Z,9.43
2019-05-17T05:08:05.724Z,9.20
2019-05-17T05:10:38.650Z,9.03
2019-05-17T05:13:08.705Z,9.20
2019-05-17T05:15:44.390Z,8.80
2019-05-17T05:18:15.264Z,9.00
2019-05-17T05:20:46.943Z,8.83
2019-05-17T05:23:17.349Z,9.47
2019-05-17T05:25:47.820Z,8.90
2019-05-17T05:28:18.402Z,8.80
2019-05-17T05:30:48.806Z,8.90
2019-05-17T05:33:19.247Z,9.37
2019-05-17T05:35:51.659Z,9.57
2019-05-17T05:38:22.061Z,9.17
2019-05-17T05:40:52.502Z,8.33
2019-05-17T05:43:23.009Z,8.67
2019-05-17T05:45:53.773Z,8.90
2019-05-17T05:48:24.317Z,8.73
2019-05-17T05:50:54.721Z,8.97
2019-05-17T05:53:25.286Z,8.30
2019-05-17T05:55:55.726Z,8.87
2019-05-17T05:58:26.135Z,8.80
2019-05-17T06:00:56.671Z,8.17
2019-05-17T06:03:27.141Z,9.37
2019-05-17T06:05:57.664Z,9.73
2019-05-17T06:08:28.104Z,9.23
2019-05-17T06:10:58.677Z,9.73
2019-05-17T06:13:29.150Z,10.17
2019-05-17T06:15:59.584Z,10.83
2019-05-17T06:18:31.828Z,11.97
2019-05-17T06:21:03.169Z,11.40
2019-05-17T06:23:33.901Z,11.63
2019-05-17T06:26:04.745Z,11.83
2019-05-17T06:28:35.208Z,10.40
2019-05-17T06:31:05.605Z,11.37
2019-05-17T06:33:36.246Z,10.63
2019-05-17T06:36:06.702Z,11.30
2019-05-17T06:38:37.174Z,10.93
2019-05-17T06:41:07.812Z,11.47
2019-05-17T06:43:38.636Z,13.23
2019-05-17T06:46:09.163Z,12.67
2019-05-17T06:48:42.176Z,13.40
2019-05-17T06:51:11.884Z,15.23
2019-05-17T06:53:43.612Z,16.00
2019-05-17T06:56:14.318Z,15.80
2019-05-17T06:58:45.070Z,16.70
2019-05-17T07:01:15.586Z,16.07
2019-05-17T07:03:46.159Z,16.97
2019-05-17T07:06:18.307Z,17.20
2019-05-17T07:08:49.525Z,14.87
2019-05-17T07:11:21.053Z,15.63
2019-05-17T07:13:52.600Z,14.83
2019-05-17T07:16:23.231Z,14.87
2019-05-17T07:18:53.641Z,14.90
2019-05-17T07:21:24.120Z,14.40
2019-05-17T07:23:54.865Z,15.03
2019-05-17T07:26:25.477Z,17.87
2019-05-17T07:28:56.243Z,18.10
2019-05-17T07:31:26.687Z,18.47
2019-05-17T07:33:59.701Z,16.33
2019-05-17T07:36:30.661Z,14.43
2019-05-17T07:39:01.196Z,13.67
2019-05-17T07:41:33.283Z,13.17
2019-05-17T07:44:03.681Z,12.33
2019-05-17T07:46:34.279Z,11.90
2019-05-17T07:49:04.737Z,11.77
2019-05-17T07:51:35.211Z,11.73
2019-05-17T07:54:05.852Z,10.87
2019-05-17T07:56:40.232Z,10.57
2019-05-17T07:59:10.347Z,10.60
2019-05-17T08:01:41.304Z,10.37
2019-05-17T08:04:11.895Z,10.90
2019-05-17T08:06:42.375Z,9.30
2019-05-17T08:09:14.212Z,8.90
2019-05-17T08:11:45.167Z,7.80
2019-05-17T08:14:26.636Z,6.77
2019-05-17T08:16:50.061Z,6.70
2019-05-17T08:19:20.488Z,6.60
2019-05-17T08:21:51.028Z,5.70
2019-05-17T08:24:21.738Z,5.27
2019-05-17T08:26:52.292Z,4.80
2019-05-17T08:29:22.764Z,4.83
2019-05-17T08:31:53.426Z,5.43
2019-05-17T08:34:23.948Z,5.50
2019-05-17T08:36:54.396Z,5.87
2019-05-17T08:39:25.052Z,5.60
2019-05-17T08:41:55.509Z,5.83
2019-05-17T08:44:25.971Z,5.60
2019-05-17T08:46:56.550Z,5.40
2019-05-17T08:49:29.450Z,5.63
2019-05-17T08:52:00.112Z,5.90
2019-05-17T08:54:30.560Z,5.50
2019-05-17T08:57:00.929Z,5.13
2019-05-17T08:59:31.524Z,4.70
2019-05-17T09:02:03.026Z,6.40
2019-05-17T09:04:33.865Z,6.60
2019-05-17T09:07:04.289Z,7.20
2019-05-17T09:09:35.663Z,7.40
2019-05-17T09:12:07.225Z,7.43
2019-05-17T09:14:39.950Z,8.23
2019-05-17T09:17:10.291Z,9.10
2019-05-17T09:19:40.917Z,9.43
2019-05-17T09:22:11.391Z,9.40
2019-05-17T09:24:41.821Z,9.30
2019-05-17T09:27:12.501Z,8.60
2019-05-17T09:29:43.014Z,9.03
2019-05-17T09:32:13.528Z,9.67
2019-05-17T09:34:43.935Z,9.17
2019-05-17T09:37:16.964Z,8.93
2019-05-17T09:39:46.446Z,9.00
2019-05-17T09:42:16.868Z,8.93
2019-05-17T09:44:49.572Z,8.37
2019-05-17T09:47:20.862Z,8.83
2019-05-17T09:49:51.242Z,9.90
2019-05-17T09:52:21.662Z,9.40
2019-05-17T09:54:52.580Z,9.10
2019-05-17T09:57:22.976Z,9.47
2019-05-17T09:59:55.948Z,9.07
2019-05-17T10:02:25.912Z,9.40
2019-05-17T10:04:56.378Z,9.57
2019-05-17T10:07:26.844Z,8.73
2019-05-17T10:09:59.544Z,9.77
2019-05-17T10:12:29.619Z,9.57
2019-05-17T10:15:00.532Z,9.00
2019-05-17T10:17:31.117Z,9.00
2019-05-17T10:20:01.632Z,9.27
2019-05-17T10:22:32.439Z,8.83
2019-05-17T10:25:02.919Z,8.50
2019-05-17T10:27:33.641Z,8.90
2019-05-17T10:30:04.376Z,8.20
2019-05-17T10:32:35.195Z,8.87
2019-05-17T10:35:05.867Z,8.57
2019-05-17T10:37:36.414Z,8.77
2019-05-17T10:40:09.901Z,8.80
2019-05-17T10:42:40.008Z,9.70
2019-05-17T10:45:11.488Z,9.57
2019-05-17T10:47:43.190Z,9.70
2019-05-17T10:50:13.747Z,9.67
2019-05-17T10:52:44.395Z,8.83
2019-05-17T10:55:14.822Z,8.90
2019-05-17T10:57:45.223Z,9.03
2019-05-17T11:00:16.507Z,8.83
2019-05-17T11:02:47.158Z,9.00
2019-05-17T11:05:19.939Z,8.83
2019-05-17T11:07:50.654Z,9.03
2019-05-17T11:10:21.340Z,8.93
2019-05-17T11:12:51.842Z,7.93
2019-05-17T11:15:22.351Z,7.67
2019-05-17T11:17:52.824Z,7.00
2019-05-17T11:20:23.612Z,6.77
2019-05-17T11:22:54.044Z,7.10
2019-05-17T11:25:24.872Z,6.70
2019-05-17T11:27:55.343Z,6.57
2019-05-17T11:30:27.277Z,5.63
2019-05-17T11:32:58.771Z,5.50
2019-05-17T11:35:30.330Z,6.20
2019-05-17T11:38:00.717Z,5.40
2019-05-17T11:40:31.319Z,6.37
2019-05-17T11:43:01.980Z,6.57
2019-05-17T11:45:32.905Z,5.80
2019-05-17T11:48:04.522Z,5.70
2019-05-17T11:50:34.945Z,5.60
2019-05-17T11:53:05.751Z,5.23
2019-05-17T11:55:36.187Z,5.27
2019-05-17T11:58:06.897Z,5.77
2019-05-17T12:00:37.412Z,5.63
2019-05-17T12:03:08.034Z,5.10
2019-05-17T12:05:38.587Z,5.40
2019-05-17T12:08:09.025Z,5.63
2019-05-17T12:10:39.527Z,5.43
2019-05-17T12:13:10.213Z,4.90
2019-05-17T12:15:44.974Z,5.00
2019-05-17T12:18:12.706Z,5.70
2019-05-17T12:20:43.795Z,5.17
2019-05-17T12:23:14.187Z,5.50
2019-05-17T12:25:44.699Z,5.83
2019-05-17T12:28:16.274Z,5.50
2019-05-17T12:30:46.744Z,5.63
2019-05-17T12:33:17.192Z,6.30
2019-05-17T12:35:47.704Z,6.67
2019-05-17T12:38:18.150Z,6.40
2019-05-17T12:40:48.564Z,6.03
2019-05-17T12:43:19.014Z,6.83
2019-05-17T12:46:00.320Z,7.33
2019-05-17T12:48:21.650Z,7.00
2019-05-17T12:50:52.112Z,7.10
2019-05-17T12:53:22.544Z,7.20
2019-05-17T12:55:53.377Z,7.90
2019-05-17T12:58:23.796Z,7.93
2019-05-17T13:00:54.450Z,8.13
2019-05-17T13:03:24.892Z,7.67
2019-05-17T13:05:55.387Z,8.20
2019-05-17T13:08:26.203Z,8.07
2019-05-17T13:10:56.643Z,7.77
2019-05-17T13:13:27.048Z,8.47
2019-05-17T13:15:57.915Z,8.63
2019-05-17T13:18:28.364Z,9.57
2019-05-17T13:20:59.240Z,9.97
2019-05-17T13:23:29.596Z,11.10
2019-05-17T13:26:00.112Z,11.00
2019-05-17T13:28:30.659Z,10.83
2019-05-17T13:31:01.121Z,12.70
2019-05-17T13:33:31.657Z,11.10
2019-05-17T13:36:02.345Z,9.10
2019-05-17T13:38:32.823Z,9.10
2019-05-17T13:41:03.431Z,7.40
2019-05-17T13:43:33.934Z,7.80
2019-05-17T13:46:04.431Z,6.90
2019-05-17T13:48:35.150Z,6.37
2019-05-17T13:51:05.671Z,6.13
2019-05-17T13:53:36.352Z,5.63
2019-05-17T13:56:06.814Z,6.43
2019-05-17T13:58:37.268Z,4.77
2019-05-17T14:01:07.997Z,5.03
2019-05-17T14:03:38.560Z,5.85
2019-05-17T14:06:08.962Z,5.23
2019-05-17T14:08:39.686Z,5.60
2019-05-17T14:11:10.086Z,5.20
2019-05-17T14:13:40.536Z,4.37
2019-05-17T14:16:11.388Z,4.40
2019-05-17T14:18:42.141Z,4.63
2019-05-17T14:21:12.648Z,4.07
2019-05-17T14:23:43.154Z,4.37
2019-05-17T14:26:13.591Z,4.20
2019-05-17T14:28:44.148Z,4.40
2019-05-17T14:31:14.774Z,3.57
2019-05-17T14:33:45.468Z,3.30
2019-05-17T14:36:15.886Z,3.27
2019-05-17T14:38:46.346Z,2.90
2019-05-17T14:41:18.116Z,2.77
2019-05-17T14:43:48.705Z,3.23
2019-05-17T14:46:19.425Z,2.30
2019-05-17T14:48:49.839Z,2.43
2019-05-17T14:51:20.333Z,2.53
2019-05-17T14:53:51.309Z,2.50
2019-05-17T14:56:22.074Z,2.47
2019-05-17T14:58:52.623Z,2.50
2019-05-17T15:01:23.129Z,2.40
2019-05-17T15:03:53.816Z,2.20
2019-05-17T15:06:25.318Z,2.35
2019-05-17T15:08:55.999Z,2.20
2019-05-17T15:11:26.763Z,2.05
2019-05-17T15:13:57.551Z,2.58
2019-05-17T15:16:28.218Z,2.05
2019-05-17T15:18:58.769Z,2.20
2019-05-17T15:21:30.098Z,2.10
2019-05-17T15:24:00.977Z,1.72
2019-05-17T15:26:31.801Z,2.08
2019-05-17T15:29:03.211Z,1.92
2019-05-17T15:31:33.686Z,1.82
2019-05-17T15:34:04.225Z,1.82
2019-05-17T15:36:34.912Z,1.98
2019-05-17T15:39:06.692Z,1.92
2019-05-17T15:41:37.450Z,2.10
2019-05-17T15:44:08.051Z,2.50
2019-05-17T15:46:38.964Z,2.12
2019-05-17T15:49:09.361Z,1.90
2019-05-17T15:51:40.062Z,1.80
2019-05-17T15:54:11.278Z,1.90
2019-05-17T15:56:41.735Z,2.10
2019-05-17T15:59:12.163Z,2.05
2019-05-17T16:01:42.932Z,1.90
2019-05-17T16:04:13.401Z,1.80
2019-05-17T16:06:44.269Z,1.90
2019-05-17T16:09:15.212Z,1.65
2019-05-17T16:11:45.920Z,1.80
2019-05-17T16:14:16.339Z,2.00
2019-05-17T16:16:47.011Z,1.90
2019-05-17T16:19:17.771Z,2.10
2019-05-17T16:21:48.713Z,1.90
2019-05-17T16:24:19.513Z,1.98
2019-05-17T16:26:50.260Z,1.92
2019-05-17T16:29:21.355Z,2.52
2019-05-17T16:31:51.990Z,1.90
2019-05-17T16:34:22.748Z,2.20
2019-05-17T16:36:53.778Z,2.15
2019-05-17T16:39:24.745Z,2.60
2019-05-17T16:41:55.398Z,2.55
2019-05-17T16:44:26.431Z,3.00
2019-05-17T16:46:57.234Z,3.37
2019-05-17T16:49:28.810Z,3.63
2019-05-17T16:52:00.708Z,2.80
2019-05-17T16:54:31.378Z,3.20
2019-05-17T16:57:02.706Z,2.77
2019-05-17T16:59:33.481Z,2.97
2019-05-17T17:02:04.175Z,3.20
2019-05-17T17:04:34.764Z,2.87
2019-05-17T17:07:05.410Z,3.23
2019-05-17T17:09:36.631Z,3.57
2019-05-17T17:12:07.762Z,3.40
2019-05-17T17:14:38.422Z,3.40
2019-05-17T17:17:12.272Z,3.27
2019-05-17T17:19:42.276Z,3.40
2019-05-17T17:22:13.500Z,3.83
2019-05-17T17:24:44.330Z,3.70
2019-05-17T17:27:15.159Z,3.43
2019-05-17T17:29:46.138Z,3.70
2019-05-17T17:32:21.529Z,4.03
2019-05-17T17:34:52.116Z,3.67
2019-05-17T17:37:22.899Z,3.63
2019-05-17T17:39:53.542Z,4.00
2019-05-17T17:42:24.469Z,4.30
2019-05-17T17:44:56.863Z,4.07
2019-05-17T17:47:27.951Z,4.73
2019-05-17T17:49:58.427Z,5.30
2019-05-17T17:52:29.648Z,4.87
2019-05-17T17:55:00.404Z,4.70
2019-05-17T17:57:31.445Z,4.60
2019-05-17T18:00:02.014Z,4.00
2019-05-17T18:02:34.405Z,4.57
2019-05-17T18:05:05.785Z,4.57
2019-05-17T18:07:36.979Z,4.63
2019-05-17T18:10:09.602Z,4.90
2019-05-17T18:12:41.051Z,4.50
2019-05-17T18:15:13.015Z,4.43
2019-05-17T18:17:44.286Z,4.53
2019-05-17T18:20:15.257Z,4.63
2019-05-17T18:22:45.996Z,4.43
2019-05-17T18:25:16.834Z,4.70
2019-05-17T18:27:47.667Z,4.67
2019-05-17T18:30:18.432Z,4.80
2019-05-17T18:32:51.440Z,5.23
2019-05-17T18:35:22.914Z,5.03
2019-05-17T18:37:55.214Z,5.87
2019-05-17T18:40:26.895Z,7.37
2019-05-17T18:42:59.150Z,8.07
2019-05-17T18:45:30.188Z,6.00
2019-05-17T18:48:01.279Z,5.90
2019-05-17T18:50:33.665Z,8.27
2019-05-17T18:53:08.353Z,10.27
2019-05-17T18:55:39.162Z,10.50
2019-05-17T18:58:10.658Z,8.00
2019-05-17T19:00:41.495Z,7.70
2019-05-17T19:03:12.593Z,7.93
2019-05-17T19:05:45.370Z,9.10
2019-05-17T19:08:16.443Z,8.93
2019-05-17T19:10:47.607Z,8.10
2019-05-17T19:13:18.593Z,7.23
2019-05-17T19:15:49.891Z,7.50
2019-05-17T19:18:21.471Z,7.37
2019-05-17T19:20:52.433Z,7.20
2019-05-17T19:23:25.848Z,7.17
2019-05-17T19:25:55.667Z,7.03
2019-05-17T19:28:27.904Z,7.47
2019-05-17T19:30:58.583Z,7.30
2019-05-17T19:33:29.178Z,7.30
2019-05-17T19:35:59.859Z,6.93
2019-05-17T19:38:31.691Z,7.83
2019-05-17T19:41:03.495Z,8.23
2019-05-17T19:43:34.502Z,8.33
2019-05-17T19:46:05.648Z,12.70
2019-05-17T19:48:36.422Z,14.93
2019-05-17T19:51:07.084Z,11.27
2019-05-17T19:53:41.027Z,10.33
2019-05-17T19:56:15.842Z,10.77
2019-05-17T19:58:46.928Z,9.60
2019-05-17T20:01:18.822Z,9.30
2019-05-17T20:03:50.855Z,9.90
2019-05-17T20:06:21.807Z,10.60
2019-05-17T20:08:52.630Z,12.90
2019-05-17T20:11:34.067Z,12.70
2019-05-17T20:13:57.508Z,13.17
2019-05-17T20:16:29.286Z,10.10
2019-05-17T20:19:02.695Z,10.07
2019-05-17T20:21:35.123Z,11.00
2019-05-17T20:24:06.212Z,16.40
2019-05-17T20:26:36.838Z,13.10
2019-05-17T20:29:10.750Z,12.40
2019-05-17T20:31:40.500Z,12.87
2019-05-17T20:34:11.215Z,12.60
2019-05-17T20:36:42.375Z,14.07
2019-05-17T20:39:13.323Z,12.70
2019-05-17T20:41:44.233Z,11.60
2019-05-17T20:44:18.749Z,12.47
2019-05-17T20:46:49.987Z,12.97
2019-05-17T20:49:20.831Z,11.90
2019-05-17T20:51:51.523Z,14.00
2019-05-17T20:54:22.362Z,14.87
2019-05-17T20:56:53.259Z,12.93
2019-05-17T20:59:24.287Z,13.50
2019-05-17T21:01:55.098Z,13.67
2019-05-17T21:04:25.957Z,13.23
2019-05-17T21:06:57.706Z,13.87
2019-05-17T21:09:28.544Z,14.17
2019-05-17T21:11:59.668Z,15.10
2019-05-17T21:14:30.496Z,13.90
2019-05-17T21:17:02.024Z,13.73
2019-05-17T21:19:32.788Z,15.00
2019-05-17T21:22:03.766Z,14.93
2019-05-17T21:24:36.081Z,15.93
2019-05-17T21:27:12.246Z,17.33
2019-05-17T21:29:42.776Z,17.57
2019-05-17T21:32:13.625Z,18.23
2019-05-17T21:34:44.161Z,16.60
2019-05-17T21:37:15.011Z,17.67
2019-05-17T21:39:45.671Z,16.50
2019-05-17T21:42:17.386Z,18.07
2019-05-17T21:44:48.200Z,17.57
2019-05-17T21:47:19.118Z,18.03
2019-05-17T21:49:50.164Z,19.27
2019-05-17T21:52:21.001Z,18.00
2019-05-17T21:54:57.765Z,18.33
2019-05-17T21:57:28.702Z,19.80
2019-05-17T21:59:59.589Z,17.73
2019-05-17T22:02:30.429Z,18.37
2019-05-17T22:05:01.229Z,20.13
2019-05-17T22:07:31.864Z,19.90
2019-05-17T22:10:03.091Z,20.20
2019-05-17T22:12:34.800Z,19.77
2019-05-17T22:15:07.479Z,20.13
2019-05-17T22:17:38.133Z,20.77
2019-05-17T22:20:09.133Z,20.60
2019-05-17T22:22:39.830Z,20.87
2019-05-17T22:25:10.491Z,21.80
2019-05-17T22:27:40.933Z,21.10
2019-05-17T22:30:12.222Z,21.30
2019-05-17T22:32:43.018Z,21.27
2019-05-17T22:35:13.677Z,21.10
2019-05-17T22:37:44.876Z,20.67
2019-05-17T22:40:15.464Z,21.50
2019-05-17T22:42:47.672Z,21.30
2019-05-17T22:45:18.654Z,20.00
2019-05-17T22:47:49.404Z,22.23
2019-05-17T22:50:19.922Z,21.13
2019-05-17T22:52:50.751Z,22.40
2019-05-17T22:55:23.528Z,22.30
2019-05-17T22:57:54.244Z,21.70
2019-05-17T23:00:25.215Z,22.87
2019-05-17T23:02:55.714Z,21.57
2019-05-17T23:05:26.608Z,21.63
2019-05-17T23:07:57.223Z,20.90
2019-05-17T23:10:27.919Z,22.03
2019-05-17T23:12:58.714Z,22.10
2019-05-17T23:15:32.117Z,20.77
2019-05-17T23:18:03.169Z,22.97
2019-05-17T23:20:34.882Z,20.63
2019-05-17T23:23:05.998Z,20.97
2019-05-17T23:25:37.021Z,20.90
2019-05-17T23:28:07.577Z,22.37
2019-05-17T23:30:38.236Z,22.37
2019-05-17T23:33:09.287Z,23.10
2019-05-17T23:35:40.917Z,23.43
2019-05-17T23:38:11.779Z,23.40
2019-05-17T23:40:42.526Z,23.70
2019-05-17T23:43:13.019Z,24.10
2019-05-17T23:45:43.757Z,23.73
2019-05-17T23:48:14.242Z,23.07
2019-05-17T23:50:45.924Z,23.50
2019-05-17T23:53:16.418Z,22.53
2019-05-17T23:55:46.940Z,22.53
2019-05-17T23:58:17.975Z,22.57
